sensor_id;sensor_type;location;lat;lon;timestamp;pressure;altitude;pressure_sealevel;temperature;humidity
56241;BME280;42155;53.096;23.226;2023-02-16T00:01:59;100903.00;;;2.61;81.65
56241;BME280;42155;53.096;23.226;2023-02-16T00:04:00;100899.78;;;2.53;81.37
56241;BME280;42155;53.096;23.226;2023-02-16T00:06:00;100895.53;;;2.49;81.61
56241;BME280;42155;53.096;23.226;2023-02-16T00:08:01;100905.78;;;2.57;82.29
56241;BME280;42155;53.096;23.226;2023-02-16T00:10:01;100910.22;;;2.54;81.80
56241;BME280;42155;53.096;23.226;2023-02-16T00:12:01;100901.53;;;2.52;81.83
56241;BME280;42155;53.096;23.226;2023-02-16T00:14:03;100890.31;;;2.49;81.76
56241;BME280;42155;53.096;23.226;2023-02-16T00:16:04;100894.81;;;2.45;82.21
56241;BME280;42155;53.096;23.226;2023-02-16T00:18:14;100893.03;;;2.46;82.13
56241;BME280;42155;53.096;23.226;2023-02-16T00:20:16;100887.81;;;2.46;82.27
56241;BME280;42155;53.096;23.226;2023-02-16T00:22:16;100888.69;;;2.45;81.62
56241;BME280;42155;53.096;23.226;2023-02-16T00:24:17;100878.34;;;2.40;81.67
56241;BME280;42155;53.096;23.226;2023-02-16T00:26:23;100879.47;;;2.33;81.82
56241;BME280;42155;53.096;23.226;2023-02-16T00:28:24;100874.16;;;2.35;82.19
56241;BME280;42155;53.096;23.226;2023-02-16T00:30:24;100880.13;;;2.40;82.05
56241;BME280;42155;53.096;23.226;2023-02-16T00:32:24;100874.03;;;2.39;82.01
56241;BME280;42155;53.096;23.226;2023-02-16T00:34:29;100870.59;;;2.37;81.97
56241;BME280;42155;53.096;23.226;2023-02-16T00:36:30;100868.91;;;2.36;81.37
56241;BME280;42155;53.096;23.226;2023-02-16T00:38:30;100864.53;;;2.37;81.37
56241;BME280;42155;53.096;23.226;2023-02-16T00:40:31;100862.00;;;2.34;81.40
56241;BME280;42155;53.096;23.226;2023-02-16T00:42:32;100863.66;;;2.36;81.36
56241;BME280;42155;53.096;23.226;2023-02-16T00:44:40;100859.28;;;2.37;81.31
56241;BME280;42155;53.096;23.226;2023-02-16T00:46:42;100833.53;;;2.23;81.72
56241;BME280;42155;53.096;23.226;2023-02-16T00:48:43;100861.00;;;2.38;81.36
56241;BME280;42155;53.096;23.226;2023-02-16T00:50:44;100848.13;;;2.30;81.72
56241;BME280;42155;53.096;23.226;2023-02-16T00:52:45;100852.31;;;2.36;81.93
56241;BME280;42155;53.096;23.226;2023-02-16T00:54:45;100855.81;;;2.36;81.51
56241;BME280;42155;53.096;23.226;2023-02-16T00:56:46;100749.47;;;1.77;81.51
56241;BME280;42155;53.096;23.226;2023-02-16T00:58:48;100845.28;;;2.38;81.25
56241;BME280;42155;53.096;23.226;2023-02-16T01:00:51;100844.28;;;2.40;81.20
56241;BME280;42155;53.096;23.226;2023-02-16T01:02:55;100832.41;;;2.30;81.48
56241;BME280;42155;53.096;23.226;2023-02-16T01:04:55;100828.56;;;2.40;81.53
56241;BME280;42155;53.096;23.226;2023-02-16T01:06:56;100827.72;;;2.40;81.41
56241;BME280;42155;53.096;23.226;2023-02-16T01:09:22;100819.84;;;2.41;81.43
56241;BME280;42155;53.096;23.226;2023-02-16T01:11:24;100828.56;;;2.40;81.55
56241;BME280;42155;53.096;23.226;2023-02-16T01:13:27;100819.00;;;2.39;81.46
56241;BME280;42155;53.096;23.226;2023-02-16T01:15:28;100809.38;;;2.40;81.35
56241;BME280;42155;53.096;23.226;2023-02-16T01:17:28;100805.91;;;2.39;81.42
56241;BME280;42155;53.096;23.226;2023-02-16T01:19:28;100806.84;;;2.38;80.97
56241;BME280;42155;53.096;23.226;2023-02-16T01:21:29;100798.19;;;2.36;81.25
56241;BME280;42155;53.096;23.226;2023-02-16T01:23:29;100787.19;;;2.25;81.03
56241;BME280;42155;53.096;23.226;2023-02-16T01:25:29;100799.19;;;2.32;81.58
56241;BME280;42155;53.096;23.226;2023-02-16T01:27:30;100792.22;;;2.31;81.63
56241;BME280;42155;53.096;23.226;2023-02-16T01:29:30;100770.78;;;2.20;81.16
56241;BME280;42155;53.096;23.226;2023-02-16T01:31:31;100787.94;;;2.28;81.68
56241;BME280;42155;53.096;23.226;2023-02-16T01:33:31;100752.81;;;2.09;80.97
56241;BME280;42155;53.096;23.226;2023-02-16T01:35:32;100733.81;;;2.02;81.31
56241;BME280;42155;53.096;23.226;2023-02-16T01:37:33;100796.59;;;2.30;81.42
56241;BME280;42155;53.096;23.226;2023-02-16T01:39:34;100786.19;;;2.29;81.35
56241;BME280;42155;53.096;23.226;2023-02-16T01:44:48;100785.56;;;2.21;81.01
56241;BME280;42155;53.096;23.226;2023-02-16T01:48:52;100772.59;;;2.18;81.49
56241;BME280;42155;53.096;23.226;2023-02-16T01:51:15;100775.22;;;2.18;80.90
56241;BME280;42155;53.096;23.226;2023-02-16T01:53:51;100772.63;;;2.16;81.14
56241;BME280;42155;53.096;23.226;2023-02-16T01:55:57;100763.13;;;2.14;81.00
56241;BME280;42155;53.096;23.226;2023-02-16T02:03:00;100749.50;;;2.02;81.09
56241;BME280;42155;53.096;23.226;2023-02-16T02:05:11;100756.47;;;2.03;80.79
56241;BME280;42155;53.096;23.226;2023-02-16T02:07:20;100718.81;;;1.81;81.03
56241;BME280;42155;53.096;23.226;2023-02-16T02:09:46;100747.88;;;2.00;81.19
56241;BME280;42155;53.096;23.226;2023-02-16T02:12:15;100751.25;;;2.03;80.89
56241;BME280;42155;53.096;23.226;2023-02-16T02:14:24;100744.41;;;1.99;80.83
56241;BME280;42155;53.096;23.226;2023-02-16T02:16:26;100748.81;;;1.97;81.31
56241;BME280;42155;53.096;23.226;2023-02-16T02:18:27;100737.63;;;1.92;80.88
56241;BME280;42155;53.096;23.226;2023-02-16T02:23:20;100730.50;;;1.97;81.38
56241;BME280;42155;53.096;23.226;2023-02-16T02:26:02;100737.44;;;1.98;81.16
56241;BME280;42155;53.096;23.226;2023-02-16T02:28:21;100739.16;;;1.99;80.87
56241;BME280;42155;53.096;23.226;2023-02-16T02:30:44;100732.25;;;1.97;81.04
56241;BME280;42155;53.096;23.226;2023-02-16T02:37:43;100733.25;;;1.93;80.75
56241;BME280;42155;53.096;23.226;2023-02-16T02:42:09;100706.03;;;1.72;81.10
56241;BME280;42155;53.096;23.226;2023-02-16T02:44:11;100729.88;;;1.89;80.76
56241;BME280;42155;53.096;23.226;2023-02-16T02:46:24;100721.13;;;1.90;81.41
56241;BME280;42155;53.096;23.226;2023-02-16T02:48:32;100715.19;;;1.85;81.05
56241;BME280;42155;53.096;23.226;2023-02-16T02:51:19;100736.88;;;1.89;80.97
56241;BME280;42155;53.096;23.226;2023-02-16T02:53:03;100723.91;;;1.86;80.96
56241;BME280;42155;53.096;23.226;2023-02-16T02:55:04;100728.16;;;1.88;81.13
56241;BME280;42155;53.096;23.226;2023-02-16T02:57:20;100733.41;;;1.88;80.77
56241;BME280;42155;53.096;23.226;2023-02-16T02:59:23;100712.63;;;1.84;81.09
56241;BME280;42155;53.096;23.226;2023-02-16T03:01:26;100722.22;;;1.83;80.85
56241;BME280;42155;53.096;23.226;2023-02-16T03:03:32;100712.63;;;1.84;80.66
56241;BME280;42155;53.096;23.226;2023-02-16T03:05:34;100723.94;;;1.84;80.69
56241;BME280;42155;53.096;23.226;2023-02-16T03:07:37;100717.09;;;1.80;81.06
56241;BME280;42155;53.096;23.226;2023-02-16T03:09:39;100720.63;;;1.79;81.18
56241;BME280;42155;53.096;23.226;2023-02-16T03:11:40;100671.63;;;1.56;81.13
56241;BME280;42155;53.096;23.226;2023-02-16T03:13:44;100629.66;;;1.34;81.05
56241;BME280;42155;53.096;23.226;2023-02-16T03:15:47;100669.00;;;1.58;81.19
56241;BME280;42155;53.096;23.226;2023-02-16T03:17:50;100704.72;;;1.85;81.38
56241;BME280;42155;53.096;23.226;2023-02-16T03:19:54;100674.72;;;1.69;81.26
56241;BME280;42155;53.096;23.226;2023-02-16T03:21:56;100697.75;;;1.84;80.83
56241;BME280;42155;53.096;23.226;2023-02-16T03:23:59;100683.22;;;1.75;80.90
56241;BME280;42155;53.096;23.226;2023-02-16T03:26:00;100686.56;;;1.81;80.85
56241;BME280;42155;53.096;23.226;2023-02-16T03:28:03;100689.22;;;1.79;81.46
56241;BME280;42155;53.096;23.226;2023-02-16T03:30:06;100684.09;;;1.76;81.38
56241;BME280;42155;53.096;23.226;2023-02-16T03:32:07;100683.34;;;1.72;81.43
56241;BME280;42155;53.096;23.226;2023-02-16T03:34:08;100679.91;;;1.70;80.96
56241;BME280;42155;53.096;23.226;2023-02-16T03:36:08;100679.03;;;1.70;81.19
56241;BME280;42155;53.096;23.226;2023-02-16T03:38:09;100674.72;;;1.69;81.03
56241;BME280;42155;53.096;23.226;2023-02-16T03:40:12;100673.81;;;1.70;81.38
56241;BME280;42155;53.096;23.226;2023-02-16T03:42:13;100655.00;;;1.59;81.08
56241;BME280;42155;53.096;23.226;2023-02-16T03:44:14;100655.91;;;1.58;81.03
56241;BME280;42155;53.096;23.226;2023-02-16T03:46:14;100661.84;;;1.63;81.14
56241;BME280;42155;53.096;23.226;2023-02-16T03:48:15;100632.75;;;1.45;81.34
56241;BME280;42155;53.096;23.226;2023-02-16T03:50:15;100665.47;;;1.59;81.42
56241;BME280;42155;53.096;23.226;2023-02-16T03:52:16;100660.31;;;1.56;81.66
56241;BME280;42155;53.096;23.226;2023-02-16T03:54:16;100636.28;;;1.44;81.19
56241;BME280;42155;53.096;23.226;2023-02-16T03:56:16;100649.22;;;1.49;81.48
56241;BME280;42155;53.096;23.226;2023-02-16T03:58:19;100648.38;;;1.48;81.11
56241;BME280;42155;53.096;23.226;2023-02-16T04:00:20;100645.91;;;1.42;81.22
56241;BME280;42155;53.096;23.226;2023-02-16T04:02:20;100635.44;;;1.44;81.45
56241;BME280;42155;53.096;23.226;2023-02-16T04:04:21;100639.03;;;1.40;81.17
56241;BME280;42155;53.096;23.226;2023-02-16T04:06:21;100632.84;;;1.42;82.00
56241;BME280;42155;53.096;23.226;2023-02-16T04:08:21;100620.69;;;1.41;81.79
56241;BME280;42155;53.096;23.226;2023-02-16T04:10:22;100631.19;;;1.40;81.22
56241;BME280;42155;53.096;23.226;2023-02-16T04:12:23;100603.78;;;1.25;81.43
56241;BME280;42155;53.096;23.226;2023-02-16T04:14:23;100632.25;;;1.34;81.58
56241;BME280;42155;53.096;23.226;2023-02-16T04:16:23;100568.16;;;0.94;81.49
56241;BME280;42155;53.096;23.226;2023-02-16T04:18:24;100616.72;;;1.30;81.35
56241;BME280;42155;53.096;23.226;2023-02-16T04:20:27;100615.84;;;1.29;81.95
56241;BME280;42155;53.096;23.226;2023-02-16T04:22:28;100605.50;;;1.26;81.47
56241;BME280;42155;53.096;23.226;2023-02-16T04:24:28;100619.47;;;1.25;81.35
56241;BME280;42155;53.096;23.226;2023-02-16T04:26:28;100604.72;;;1.22;81.55
56241;BME280;42155;53.096;23.226;2023-02-16T04:28:29;100600.34;;;1.23;81.68
56241;BME280;42155;53.096;23.226;2023-02-16T04:30:30;100602.13;;;1.22;81.83
56241;BME280;42155;53.096;23.226;2023-02-16T04:32:30;100591.81;;;1.18;81.87
56241;BME280;42155;53.096;23.226;2023-02-16T04:34:30;100595.22;;;1.20;81.55
56241;BME280;42155;53.096;23.226;2023-02-16T04:36:31;100597.88;;;1.18;81.45
56241;BME280;42155;53.096;23.226;2023-02-16T04:38:31;100602.25;;;1.18;81.66
56241;BME280;42155;53.096;23.226;2023-02-16T04:40:31;100604.06;;;1.16;81.68
56241;BME280;42155;53.096;23.226;2023-02-16T04:42:32;100601.56;;;1.13;82.05
56241;BME280;42155;53.096;23.226;2023-02-16T04:44:32;100569.94;;;0.92;82.00
56241;BME280;42155;53.096;23.226;2023-02-16T04:46:32;100593.66;;;1.14;82.23
56241;BME280;42155;53.096;23.226;2023-02-16T04:48:33;100582.50;;;1.09;81.77
56241;BME280;42155;53.096;23.226;2023-02-16T04:50:33;100581.63;;;1.09;82.11
56241;BME280;42155;53.096;23.226;2023-02-16T04:52:33;100595.50;;;1.11;81.41
56241;BME280;42155;53.096;23.226;2023-02-16T04:54:34;100589.47;;;1.09;81.72
56241;BME280;42155;53.096;23.226;2023-02-16T04:56:34;100591.16;;;1.11;81.80
56241;BME280;42155;53.096;23.226;2023-02-16T04:58:35;100588.56;;;1.10;81.62
56241;BME280;42155;53.096;23.226;2023-02-16T05:00:35;100580.06;;;1.03;82.19
56241;BME280;42155;53.096;23.226;2023-02-16T05:02:35;100590.47;;;1.05;81.92
56241;BME280;42155;53.096;23.226;2023-02-16T05:04:36;100588.78;;;1.04;81.56
56241;BME280;42155;53.096;23.226;2023-02-16T05:06:37;100587.06;;;1.02;82.19
56241;BME280;42155;53.096;23.226;2023-02-16T05:08:38;100578.41;;;1.00;81.84
56241;BME280;42155;53.096;23.226;2023-02-16T05:10:38;100545.13;;;0.79;81.75
56241;BME280;42155;53.096;23.226;2023-02-16T05:12:38;100572.47;;;0.95;81.66
56241;BME280;42155;53.096;23.226;2023-02-16T05:14:39;100531.16;;;0.79;81.45
56241;BME280;42155;53.096;23.226;2023-02-16T05:16:39;100578.41;;;1.00;82.21
56241;BME280;42155;53.096;23.226;2023-02-16T05:18:39;100559.47;;;0.92;82.12
56241;BME280;42155;53.096;23.226;2023-02-16T05:20:40;100564.63;;;0.95;81.60
56241;BME280;42155;53.096;23.226;2023-02-16T05:22:40;100568.16;;;0.94;82.37
56241;BME280;42155;53.096;23.226;2023-02-16T05:24:41;100573.38;;;0.94;81.79
56241;BME280;42155;53.096;23.226;2023-02-16T05:26:42;100560.31;;;0.94;82.40
56241;BME280;42155;53.096;23.226;2023-02-16T05:28:42;100567.28;;;0.94;82.24
56241;BME280;42155;53.096;23.226;2023-02-16T05:30:42;100563.13;;;0.88;81.73
56241;BME280;42155;53.096;23.226;2023-02-16T05:32:43;100565.63;;;0.91;81.87
56241;BME280;42155;53.096;23.226;2023-02-16T05:34:43;100569.94;;;0.92;82.01
56241;BME280;42155;53.096;23.226;2023-02-16T05:36:43;100532.13;;;0.76;81.79
56241;BME280;42155;53.096;23.226;2023-02-16T05:38:44;100546.47;;;0.91;81.71
56241;BME280;42155;53.096;23.226;2023-02-16T05:40:44;100551.63;;;0.94;81.67
56241;BME280;42155;53.096;23.226;2023-02-16T05:42:44;100559.41;;;0.95;81.78
56241;BME280;42155;53.096;23.226;2023-02-16T05:44:45;100563.00;;;0.91;81.77
56241;BME280;42155;53.096;23.226;2023-02-16T05:46:45;100551.06;;;0.84;81.99
56241;BME280;42155;53.096;23.226;2023-02-16T05:48:45;100549.94;;;0.91;81.84
56241;BME280;42155;53.096;23.226;2023-02-16T05:50:46;100527.91;;;0.72;81.92
56241;BME280;42155;53.096;23.226;2023-02-16T05:52:46;100554.31;;;0.91;81.64
56241;BME280;42155;53.096;23.226;2023-02-16T05:54:46;100508.00;;;0.68;82.21
56241;BME280;42155;53.096;23.226;2023-02-16T05:56:49;100555.00;;;0.97;82.05
56241;BME280;42155;53.096;23.226;2023-02-16T05:58:49;100530.22;;;0.81;81.95
56241;BME280;42155;53.096;23.226;2023-02-16T06:00:50;100548.94;;;0.95;81.30
56241;BME280;42155;53.096;23.226;2023-02-16T06:02:50;100568.16;;;0.94;81.99
56241;BME280;42155;53.096;23.226;2023-02-16T06:04:50;100551.66;;;0.92;81.85
56241;BME280;42155;53.096;23.226;2023-02-16T06:06:51;100549.91;;;0.93;81.66
56241;BME280;42155;53.096;23.226;2023-02-16T06:08:51;100542.09;;;0.91;82.08
56241;BME280;42155;53.096;23.226;2023-02-16T06:10:52;100554.16;;;0.95;81.84
56241;BME280;42155;53.096;23.226;2023-02-16T06:12:53;100524.09;;;0.82;81.67
56241;BME280;42155;53.096;23.226;2023-02-16T06:14:53;100547.03;;;1.00;82.19
56241;BME280;42155;53.096;23.226;2023-02-16T06:16:54;100460.50;;;0.57;82.04
56241;BME280;42155;53.096;23.226;2023-02-16T06:18:54;100539.91;;;1.06;81.96
56241;BME280;42155;53.096;23.226;2023-02-16T06:20:55;100490.25;;;0.79;81.76
56241;BME280;42155;53.096;23.226;2023-02-16T06:22:56;100485.13;;;0.76;81.31
56241;BME280;42155;53.096;23.226;2023-02-16T06:24:56;100523.50;;;1.00;81.52
56241;BME280;42155;53.096;23.226;2023-02-16T06:26:57;100493.56;;;0.84;81.76
56241;BME280;42155;53.096;23.226;2023-02-16T06:28:57;100532.97;;;1.05;81.79
56241;BME280;42155;53.096;23.226;2023-02-16T06:30:58;100519.97;;;1.03;81.45
56241;BME280;42155;53.096;23.226;2023-02-16T06:32:58;100532.03;;;1.07;81.29
56241;BME280;42155;53.096;23.226;2023-02-16T06:34:58;100526.75;;;1.09;82.01
56241;BME280;42155;53.096;23.226;2023-02-16T06:36:59;100535.50;;;1.08;81.99
56241;BME280;42155;53.096;23.226;2023-02-16T06:38:59;100531.06;;;1.10;81.68
56241;BME280;42155;53.096;23.226;2023-02-16T06:41:00;100533.53;;;1.14;81.63
56241;BME280;42155;53.096;23.226;2023-02-16T06:43:00;100503.59;;;0.96;81.43
56241;BME280;42155;53.096;23.226;2023-02-16T06:45:01;100458.09;;;0.77;81.61
56241;BME280;42155;53.096;23.226;2023-02-16T06:47:01;100514.59;;;1.08;81.49
56241;BME280;42155;53.096;23.226;2023-02-16T06:49:02;100517.19;;;1.08;81.38
56241;BME280;42155;53.096;23.226;2023-02-16T06:51:03;100519.66;;;1.12;81.58
56241;BME280;42155;53.096;23.226;2023-02-16T06:53:03;100524.75;;;1.17;81.26
56241;BME280;42155;53.096;23.226;2023-02-16T06:55:04;100516.00;;;1.18;81.90
56241;BME280;42155;53.096;23.226;2023-02-16T06:57:04;100508.94;;;1.20;81.27
56241;BME280;42155;53.096;23.226;2023-02-16T06:59:05;100506.31;;;1.20;81.84
56241;BME280;42155;53.096;23.226;2023-02-16T07:01:05;100477.88;;;1.11;81.50
56241;BME280;42155;53.096;23.226;2023-02-16T07:03:06;100503.69;;;1.21;81.72
56241;BME280;42155;53.096;23.226;2023-02-16T07:05:06;100501.00;;;1.23;81.54
56241;BME280;42155;53.096;23.226;2023-02-16T07:07:07;100490.53;;;1.23;81.85
56241;BME280;42155;53.096;23.226;2023-02-16T07:09:07;100452.97;;;1.00;81.70
56241;BME280;42155;53.096;23.226;2023-02-16T07:11:07;100477.88;;;1.11;81.97
56241;BME280;42155;53.096;23.226;2023-02-16T07:13:08;100492.56;;;1.15;81.84
56241;BME280;42155;53.096;23.226;2023-02-16T07:15:08;100485.53;;;1.17;81.89
56241;BME280;42155;53.096;23.226;2023-02-16T07:17:09;100476.69;;;1.21;81.30
56241;BME280;42155;53.096;23.226;2023-02-16T07:19:09;100473.09;;;1.23;81.06
56241;BME280;42155;53.096;23.226;2023-02-16T07:21:09;100486.94;;;1.27;81.78
56241;BME280;42155;53.096;23.226;2023-02-16T07:23:10;100459.25;;;1.21;81.45
56241;BME280;42155;53.096;23.226;2023-02-16T07:25:10;100455.81;;;1.19;81.59
56241;BME280;42155;53.096;23.226;2023-02-16T07:27:10;100461.47;;;1.32;81.01
56241;BME280;42155;53.096;23.226;2023-02-16T07:29:11;100464.25;;;1.27;80.99
56241;BME280;42155;53.096;23.226;2023-02-16T07:31:13;100458.25;;;1.24;81.71
56241;BME280;42155;53.096;23.226;2023-02-16T07:33:14;100459.88;;;1.28;81.76
56241;BME280;42155;53.096;23.226;2023-02-16T07:35:14;100445.31;;;1.21;81.58
56241;BME280;42155;53.096;23.226;2023-02-16T07:37:15;100452.03;;;1.28;81.50
56241;BME280;42155;53.096;23.226;2023-02-16T07:39:15;100454.75;;;1.25;80.95
56241;BME280;42155;53.096;23.226;2023-02-16T07:41:15;100451.34;;;1.23;81.76
56241;BME280;42155;53.096;23.226;2023-02-16T07:43:16;100446.03;;;1.24;80.99
56241;BME280;42155;53.096;23.226;2023-02-16T07:45:16;100439.16;;;1.22;81.56
56241;BME280;42155;53.096;23.226;2023-02-16T07:47:17;100444.19;;;1.28;81.69
56241;BME280;42155;53.096;23.226;2023-02-16T07:49:17;100434.63;;;1.27;81.56
56241;BME280;42155;53.096;23.226;2023-02-16T07:51:25;100420.94;;;1.20;81.61
56241;BME280;42155;53.096;23.226;2023-02-16T07:53:25;100405.59;;;1.10;80.93
56241;BME280;42155;53.096;23.226;2023-02-16T07:55:25;100414.03;;;1.18;81.52
56241;BME280;42155;53.096;23.226;2023-02-16T07:57:27;100413.25;;;1.16;81.53
56241;BME280;42155;53.096;23.226;2023-02-16T07:59:27;100435.38;;;1.31;81.10
56241;BME280;42155;53.096;23.226;2023-02-16T08:01:28;100436.94;;;1.36;81.22
56241;BME280;42155;53.096;23.226;2023-02-16T08:03:29;100428.13;;;1.39;81.01
56241;BME280;42155;53.096;23.226;2023-02-16T08:05:29;100426.38;;;1.39;80.97
56241;BME280;42155;53.096;23.226;2023-02-16T08:07:30;100429.00;;;1.39;81.65
56241;BME280;42155;53.096;23.226;2023-02-16T08:09:30;100426.38;;;1.39;81.52
56241;BME280;42155;53.096;23.226;2023-02-16T08:11:30;100404.28;;;1.23;80.99
56241;BME280;42155;53.096;23.226;2023-02-16T08:13:31;100415.22;;;1.34;81.13
56241;BME280;42155;53.096;23.226;2023-02-16T08:15:31;100406.56;;;1.32;81.33
56241;BME280;42155;53.096;23.226;2023-02-16T08:17:33;100423.31;;;1.51;81.03
56241;BME280;42155;53.096;23.226;2023-02-16T08:19:34;100419.78;;;1.52;80.78
56241;BME280;42155;53.096;23.226;2023-02-16T08:21:34;100419.78;;;1.52;80.66
56241;BME280;42155;53.096;23.226;2023-02-16T08:23:34;100413.66;;;1.53;80.97
56241;BME280;42155;53.096;23.226;2023-02-16T08:25:35;100419.72;;;1.54;81.17
56241;BME280;42155;53.096;23.226;2023-02-16T08:27:36;100410.13;;;1.55;80.72
56241;BME280;42155;53.096;23.226;2023-02-16T08:29:36;100417.88;;;1.58;81.18
56241;BME280;42155;53.096;23.226;2023-02-16T08:31:37;100411.75;;;1.57;80.79
56241;BME280;42155;53.096;23.226;2023-02-16T08:33:38;100421.16;;;1.63;80.49
56241;BME280;42155;53.096;23.226;2023-02-16T08:35:39;100403.88;;;1.59;80.57
56241;BME280;42155;53.096;23.226;2023-02-16T08:37:39;100405.34;;;1.66;80.56
56241;BME280;42155;53.096;23.226;2023-02-16T08:39:39;100407.06;;;1.67;80.74
56241;BME280;42155;53.096;23.226;2023-02-16T08:41:41;100416.31;;;1.75;80.43
56241;BME280;42155;53.096;23.226;2023-02-16T08:43:41;100418.84;;;1.78;81.01
56241;BME280;42155;53.096;23.226;2023-02-16T08:45:46;100421.22;;;1.85;80.73
56241;BME280;42155;53.096;23.226;2023-02-16T08:47:46;100416.88;;;1.85;80.47
56241;BME280;42155;53.096;23.226;2023-02-16T08:49:46;100427.38;;;1.84;80.93
56241;BME280;42155;53.096;23.226;2023-02-16T08:51:50;100427.44;;;1.82;80.56
56241;BME280;42155;53.096;23.226;2023-02-16T08:53:51;100430.22;;;1.77;81.41
56241;BME280;42155;53.096;23.226;2023-02-16T08:55:56;100422.53;;;1.73;81.44
56241;BME280;42155;53.096;23.226;2023-02-16T08:57:57;100427.53;;;1.79;81.13
56241;BME280;42155;53.096;23.226;2023-02-16T08:59:57;100425.72;;;1.81;80.93
56241;BME280;42155;53.096;23.226;2023-02-16T09:01:58;100429.97;;;1.84;80.74
56241;BME280;42155;53.096;23.226;2023-02-16T09:03:58;100427.50;;;1.81;81.43
56241;BME280;42155;53.096;23.226;2023-02-16T09:06:01;100427.44;;;1.82;80.81
56241;BME280;42155;53.096;23.226;2023-02-16T09:08:02;100424.81;;;1.82;80.76
56241;BME280;42155;53.096;23.226;2023-02-16T09:10:03;100423.28;;;1.76;80.45
56241;BME280;42155;53.096;23.226;2023-02-16T09:12:03;100429.28;;;1.78;81.25
56241;BME280;42155;53.096;23.226;2023-02-16T09:14:04;100431.75;;;1.83;81.19
56241;BME280;42155;53.096;23.226;2023-02-16T09:16:06;100421.28;;;1.83;80.64
56241;BME280;42155;53.096;23.226;2023-02-16T09:18:07;100418.31;;;1.92;80.66
56241;BME280;42155;53.096;23.226;2023-02-16T09:20:08;100424.97;;;2.01;80.97
56241;BME280;42155;53.096;23.226;2023-02-16T09:22:09;100390.34;;;1.94;80.75
56241;BME280;42155;53.096;23.226;2023-02-16T09:24:09;100404.72;;;2.06;80.44
56241;BME280;42155;53.096;23.226;2023-02-16T09:26:10;100409.00;;;2.09;80.36
56241;BME280;42155;53.096;23.226;2023-02-16T09:28:10;100399.53;;;2.04;80.59
56241;BME280;42155;53.096;23.226;2023-02-16T09:30:11;100384.88;;;2.00;80.54
56241;BME280;42155;53.096;23.226;2023-02-16T09:32:11;100413.91;;;2.16;80.44
56241;BME280;42155;53.096;23.226;2023-02-16T09:36:12;100403.03;;;2.27;80.23
56241;BME280;42155;53.096;23.226;2023-02-16T09:38:12;100408.13;;;2.30;79.86
56241;BME280;42155;53.096;23.226;2023-02-16T09:40:13;100408.69;;;2.38;79.71
56241;BME280;42155;53.096;23.226;2023-02-16T09:46:32;100361.81;;;2.32;79.99
56241;BME280;42155;53.096;23.226;2023-02-16T09:48:39;100392.34;;;2.53;79.37
56241;BME280;42155;53.096;23.226;2023-02-16T09:50:41;100354.72;;;2.34;79.49
56241;BME280;42155;53.096;23.226;2023-02-16T09:52:49;100387.06;;;2.55;79.43
56241;BME280;42155;53.096;23.226;2023-02-16T09:54:59;100380.97;;;2.54;79.66
56241;BME280;42155;53.096;23.226;2023-02-16T09:57:31;100350.03;;;2.42;79.59
56241;BME280;42155;53.096;23.226;2023-02-16T09:59:44;100346.50;;;2.43;79.62
56241;BME280;42155;53.096;23.226;2023-02-16T10:02:17;100362.69;;;2.53;79.72
56241;BME280;42155;53.096;23.226;2023-02-16T10:04:35;100363.53;;;2.53;79.37
56241;BME280;42155;53.096;23.226;2023-02-16T10:06:55;100368.16;;;2.69;80.01
56241;BME280;42155;53.096;23.226;2023-02-16T10:09:16;100372.47;;;2.70;79.38
56241;BME280;42155;53.096;23.226;2023-02-16T10:11:45;100373.41;;;2.69;79.15
56241;BME280;42155;53.096;23.226;2023-02-16T10:13:50;100356.03;;;2.66;79.09
56241;BME280;42155;53.096;23.226;2023-02-16T10:15:52;100363.63;;;2.72;79.17
56241;BME280;42155;53.096;23.226;2023-02-16T10:17:58;100355.72;;;2.74;79.05
56241;BME280;42155;53.096;23.226;2023-02-16T10:20:11;100301.97;;;2.43;79.19
56241;BME280;42155;53.096;23.226;2023-02-16T10:22:16;100357.31;;;2.78;78.93
56241;BME280;42155;53.096;23.226;2023-02-16T10:24:20;100350.31;;;2.77;79.38
56241;BME280;42155;53.096;23.226;2023-02-16T10:26:47;100359.00;;;2.79;78.75
56241;BME280;42155;53.096;23.226;2023-02-16T10:28:56;100352.84;;;2.80;78.83
56241;BME280;42155;53.096;23.226;2023-02-16T10:31:12;100357.41;;;2.75;78.83
56241;BME280;42155;53.096;23.226;2023-02-16T10:35:47;100277.47;;;2.24;79.11
56241;BME280;42155;53.096;23.226;2023-02-16T10:37:59;100361.09;;;2.71;78.53
56241;BME280;42155;53.096;23.226;2023-02-16T10:44:57;100344.53;;;2.48;79.81
56241;BME280;42155;53.096;23.226;2023-02-16T10:47:04;100366.88;;;2.57;79.52
56241;BME280;42155;53.096;23.226;2023-02-16T10:49:09;100346.19;;;2.51;79.77
56241;BME280;42155;53.096;23.226;2023-02-16T10:51:14;100358.06;;;2.60;79.51
56241;BME280;42155;53.096;23.226;2023-02-16T10:53:23;100332.38;;;2.47;79.42
56241;BME280;42155;53.096;23.226;2023-02-16T10:55:28;100332.56;;;2.63;79.74
56241;BME280;42155;53.096;23.226;2023-02-16T10:57:31;100328.97;;;2.66;79.64
56241;BME280;42155;53.096;23.226;2023-02-16T10:59:36;100334.16;;;2.67;79.32
56241;BME280;42155;53.096;23.226;2023-02-16T11:01:41;100348.09;;;2.68;79.58
56241;BME280;42155;53.096;23.226;2023-02-16T11:03:46;100340.22;;;2.68;79.49
56241;BME280;42155;53.096;23.226;2023-02-16T11:05:47;100313.34;;;2.64;79.80
56241;BME280;42155;53.096;23.226;2023-02-16T11:07:56;100331.22;;;2.75;79.31
56241;BME280;42155;53.096;23.226;2023-02-16T11:09:58;100295.09;;;2.61;79.48
56241;BME280;42155;53.096;23.226;2023-02-16T11:11:59;100314.75;;;2.71;79.39
56241;BME280;42155;53.096;23.226;2023-02-16T11:14:05;100325.69;;;2.81;79.18
56241;BME280;42155;53.096;23.226;2023-02-16T11:16:11;100317.06;;;2.79;79.37
56241;BME280;42155;53.096;23.226;2023-02-16T11:18:33;100317.91;;;2.79;78.99